createdAt,value
2018-06-15T00:00:38.514Z,92.14
2018-06-15T00:03:08.052Z,92.04
2018-06-15T00:05:37.206Z,91.83
2018-06-15T00:08:06.211Z,92.00
2018-06-15T00:10:35.180Z,92.07
2018-06-15T00:13:04.228Z,91.90
2018-06-15T00:15:33.429Z,91.61
2018-06-15T00:18:02.280Z,91.69
2018-06-15T00:20:31.540Z,91.50
2018-06-15T00:23:00.737Z,90.68
2018-06-15T00:25:29.944Z,91.41
2018-06-15T00:27:59.093Z,91.35
2018-06-15T00:30:28.051Z,91.14
2018-06-15T00:32:57.683Z,91.04
2018-06-15T00:35:26.723Z,91.38
2018-06-15T00:37:56.320Z,91.16
2018-06-15T00:40:25.514Z,90.97
2018-06-15T00:43:02.116Z,91.06
2018-06-15T00:45:31.361Z,90.94
2018-06-15T00:48:00.259Z,90.64
2018-06-15T00:50:29.481Z,91.19
2018-06-15T00:52:58.763Z,90.99
2018-06-15T00:55:27.661Z,90.77
2018-06-15T00:57:57.237Z,91.56
2018-06-15T01:00:26.092Z,91.76
2018-06-15T01:02:55.345Z,91.66
2018-06-15T01:05:24.306Z,91.58
2018-06-15T01:07:53.311Z,91.18
2018-06-15T01:10:23.380Z,91.28
2018-06-15T01:12:52.623Z,91.05
2018-06-15T01:15:21.896Z,91.29
2018-06-15T01:17:51.121Z,91.62
2018-06-15T01:20:20.579Z,91.59
2018-06-15T01:22:49.757Z,91.85
2018-06-15T01:25:18.606Z,91.81
2018-06-15T01:27:47.976Z,92.32
2018-06-15T01:30:17.516Z,92.00
2018-06-15T01:32:46.677Z,92.28
2018-06-15T01:35:15.907Z,92.01
2018-06-15T01:37:45.172Z,91.58
2018-06-15T01:40:14.676Z,92.06
2018-06-15T01:42:44.411Z,91.87
2018-06-15T01:45:13.732Z,91.35
2018-06-15T01:47:42.899Z,91.60
2018-06-15T01:50:12.195Z,91.27
2018-06-15T01:52:41.566Z,91.36
2018-06-15T01:55:10.903Z,91.64
2018-06-15T01:57:40.781Z,90.77
2018-06-15T02:00:09.859Z,90.86
2018-06-15T02:02:39.058Z,90.87
2018-06-15T02:05:07.968Z,90.33
2018-06-15T02:07:37.247Z,90.22
2018-06-15T02:10:06.561Z,90.80
2018-06-15T02:12:35.481Z,90.69
2018-06-15T02:15:04.600Z,90.90
2018-06-15T02:17:33.556Z,90.79
2018-06-15T02:20:03.150Z,91.17
2018-06-15T02:22:32.943Z,91.35
2018-06-15T02:25:02.108Z,91.23
2018-06-15T02:27:31.475Z,91.54
2018-06-15T02:30:01.016Z,91.89
2018-06-15T02:32:29.936Z,91.45
2018-06-15T02:34:59.482Z,91.87
2018-06-15T02:37:29.616Z,91.68
2018-06-15T02:39:59.183Z,92.00
2018-06-15T02:42:28.541Z,92.50
2018-06-15T02:44:57.890Z,92.71
2018-06-15T02:47:27.326Z,92.96
2018-06-15T02:49:56.183Z,92.88
2018-06-15T02:52:25.685Z,93.07
2018-06-15T02:54:55.340Z,93.11
2018-06-15T02:57:24.473Z,93.12
2018-06-15T02:59:53.754Z,93.20
2018-06-15T03:02:23.588Z,93.60
2018-06-15T03:04:52.423Z,93.59
2018-06-15T03:07:21.709Z,93.53
2018-06-15T03:09:50.989Z,93.77
2018-06-15T03:12:20.603Z,93.35
2018-06-15T03:14:49.877Z,93.80
2018-06-15T03:17:18.784Z,93.39
2018-06-15T03:19:48.616Z,93.66
2018-06-15T03:22:17.701Z,93.95
2018-06-15T03:24:46.949Z,93.73
2018-06-15T03:27:16.555Z,93.90
2018-06-15T03:29:45.851Z,93.96
2018-06-15T03:32:14.950Z,94.23
2018-06-15T03:34:44.272Z,94.19
2018-06-15T03:37:13.535Z,94.54
2018-06-15T03:39:43.164Z,94.38
2018-06-15T03:42:12.440Z,94.63
2018-06-15T03:44:41.469Z,94.47
2018-06-15T03:47:10.648Z,94.54
2018-06-15T03:49:39.723Z,94.82
2018-06-15T03:52:08.985Z,95.32
2018-06-15T03:54:38.528Z,95.36
2018-06-15T03:57:07.760Z,95.58
2018-06-15T03:59:36.987Z,96.05
2018-06-15T04:02:05.994Z,96.20
2018-06-15T04:04:34.887Z,96.65
2018-06-15T04:07:03.816Z,97.18
2018-06-15T04:09:33.495Z,97.40
2018-06-15T04:12:02.341Z,97.42
2018-06-15T04:14:31.528Z,97.52
2018-06-15T04:17:00.628Z,97.82
2018-06-15T04:19:29.750Z,97.25
2018-06-15T04:21:59.183Z,97.27
2018-06-15T04:24:28.368Z,97.43
2018-06-15T04:26:57.543Z,96.96
2018-06-15T04:29:26.562Z,96.82
2018-06-15T04:31:55.909Z,96.89
2018-06-15T04:34:25.450Z,96.70
2018-06-15T04:36:54.700Z,96.50
2018-06-15T04:39:23.600Z,96.89
2018-06-15T04:41:53.357Z,96.79
2018-06-15T04:44:22.863Z,96.90
2018-06-15T04:46:52.991Z,96.96
2018-06-15T04:49:22.816Z,97.17
2018-06-15T04:51:52.385Z,97.25
2018-06-15T04:54:21.347Z,96.99
2018-06-15T04:56:50.327Z,97.08
2018-06-15T04:59:19.549Z,97.32
2018-06-15T05:01:48.491Z,97.17
2018-06-15T05:04:17.998Z,97.24
2018-06-15T05:06:47.924Z,97.19
2018-06-15T05:09:17.189Z,96.99
2018-06-15T05:11:46.061Z,97.34
2018-06-15T05:14:15.015Z,97.57
2018-06-15T05:16:43.961Z,97.20
2018-06-15T05:19:13.028Z,97.57
2018-06-15T05:21:42.316Z,97.30
2018-06-15T05:24:11.336Z,97.20
2018-06-15T05:26:40.584Z,98.01
2018-06-15T05:29:09.569Z,96.86
2018-06-15T05:31:39.056Z,97.07
2018-06-15T05:34:08.048Z,96.58
2018-06-15T05:36:36.924Z,97.06
2018-06-15T05:39:09.510Z,96.70
2018-06-15T05:41:38.728Z,96.82
2018-06-15T05:44:09.566Z,96.73
2018-06-15T05:46:38.779Z,96.35
2018-06-15T05:49:09.754Z,96.68
2018-06-15T05:51:40.929Z,96.36
2018-06-15T05:54:11.329Z,96.80
2018-06-15T05:56:40.978Z,96.68
2018-06-15T05:59:11.618Z,96.60
2018-06-15T06:01:41.522Z,96.59
2018-06-15T06:04:15.665Z,96.84
2018-06-15T06:06:45.444Z,96.45
2018-06-15T06:09:15.012Z,96.95
2018-06-15T06:11:44.380Z,96.70
2018-06-15T06:14:14.156Z,96.49
2018-06-15T06:16:43.837Z,96.20
2018-06-15T06:19:13.403Z,96.07
2018-06-15T06:21:42.466Z,95.83
2018-06-15T06:24:11.893Z,95.75
2018-06-15T06:26:42.036Z,95.31
2018-06-15T06:29:11.165Z,94.38
2018-06-15T06:31:41.002Z,94.55
2018-06-15T06:34:10.756Z,94.50
2018-06-15T06:36:40.157Z,94.89
2018-06-15T06:39:11.615Z,94.86
2018-06-15T06:41:41.132Z,94.06
2018-06-15T06:44:11.169Z,94.01
2018-06-15T06:46:40.496Z,94.07
2018-06-15T06:49:10.618Z,93.67
2018-06-15T06:51:39.613Z,93.73
2018-06-15T06:54:09.132Z,93.75
2018-06-15T06:56:38.617Z,92.59
2018-06-15T06:59:08.142Z,92.53
2018-06-15T07:01:36.970Z,91.32
2018-06-15T07:04:06.261Z,91.03
2018-06-15T07:06:35.608Z,90.58
2018-06-15T07:09:06.589Z,90.14
2018-06-15T07:11:36.847Z,90.56
2018-06-15T07:14:07.650Z,88.30
2018-06-15T07:16:37.078Z,87.80
2018-06-15T07:19:06.530Z,87.57
2018-06-15T07:21:35.716Z,84.51
2018-06-15T07:24:06.006Z,84.67
2018-06-15T07:26:37.731Z,85.54
2018-06-15T07:29:07.339Z,85.30
2018-06-15T07:31:40.605Z,81.00
2018-06-15T07:34:10.212Z,80.41
2018-06-15T07:36:39.269Z,79.75
2018-06-15T07:39:10.657Z,80.08
2018-06-15T07:41:41.060Z,77.79
2018-06-15T07:44:10.286Z,78.74
2018-06-15T07:46:40.458Z,78.51
2018-06-15T07:49:09.544Z,77.28
2018-06-15T07:51:39.002Z,73.37
2018-06-15T07:54:08.524Z,74.55
2018-06-15T07:56:38.898Z,73.45
2018-06-15T07:59:08.527Z,74.21
2018-06-15T08:01:37.683Z,73.94
2018-06-15T08:04:09.381Z,73.15
2018-06-15T08:06:38.977Z,73.05
2018-06-15T08:09:09.860Z,74.61
2018-06-15T08:11:40.008Z,72.12
2018-06-15T08:14:09.493Z,72.34
2018-06-15T08:16:38.634Z,69.67
2018-06-15T08:19:07.778Z,70.52
2018-06-15T08:21:37.193Z,71.95
2018-06-15T08:24:06.398Z,72.16
2018-06-15T08:26:35.896Z,71.91
2018-06-15T08:29:04.917Z,69.75
2018-06-15T08:31:34.184Z,68.19
2018-06-15T08:34:03.139Z,67.61
2018-06-15T08:36:32.144Z,67.45
2018-06-15T08:39:01.105Z,68.38
2018-06-15T08:41:30.916Z,66.78
2018-06-15T08:44:00.571Z,66.42
2018-06-15T08:46:30.092Z,66.19
2018-06-15T08:48:59.103Z,64.88
2018-06-15T08:51:28.633Z,64.12
2018-06-15T08:53:57.466Z,63.58
2018-06-15T08:56:26.612Z,64.85
2018-06-15T08:58:55.482Z,64.59
2018-06-15T09:01:24.403Z,64.47
2018-06-15T09:03:53.318Z,64.62
2018-06-15T09:06:22.164Z,64.51
2018-06-15T09:08:51.120Z,63.95
2018-06-15T09:11:20.389Z,62.77
2018-06-15T09:13:49.841Z,61.85
2018-06-15T09:16:18.951Z,61.39
2018-06-15T09:18:48.441Z,61.98
2018-06-15T09:21:17.839Z,62.71
2018-06-15T09:23:46.676Z,62.62
2018-06-15T09:26:15.672Z,61.14
2018-06-15T09:28:45.126Z,59.44
2018-06-15T09:31:14.226Z,58.87
2018-06-15T09:33:43.757Z,59.81
2018-06-15T09:36:12.980Z,58.54
2018-06-15T09:38:42.222Z,59.96
2018-06-15T09:41:11.460Z,58.50
2018-06-15T09:43:40.266Z,57.87
2018-06-15T09:46:09.020Z,55.97
2018-06-15T09:48:41.863Z,55.82
2018-06-15T09:51:11.480Z,54.25
2018-06-15T09:53:40.978Z,54.46
2018-06-15T09:56:10.113Z,54.65
2018-06-15T09:58:38.938Z,53.25
2018-06-15T10:01:07.852Z,53.04
2018-06-15T10:03:37.009Z,52.64
2018-06-15T10:06:05.845Z,51.27
2018-06-15T10:08:35.248Z,52.25
2018-06-15T10:11:04.515Z,48.78
2018-06-15T10:13:33.659Z,49.90
2018-06-15T10:16:02.743Z,49.03
2018-06-15T10:18:32.325Z,49.79
2018-06-15T10:21:01.361Z,50.47
2018-06-15T10:23:30.342Z,50.58
2018-06-15T10:25:59.543Z,46.34
2018-06-15T10:28:28.300Z,46.31
2018-06-15T10:30:57.423Z,48.05
2018-06-15T10:33:26.311Z,44.34
2018-06-15T10:35:55.410Z,45.88
2018-06-15T10:38:24.521Z,45.31
2018-06-15T10:40:53.327Z,45.00
2018-06-15T10:43:22.100Z,44.61
2018-06-15T10:45:50.883Z,44.61
2018-06-15T10:48:20.249Z,45.70
2018-06-15T10:50:49.036Z,43.88
2018-06-15T10:53:18.081Z,44.14
2018-06-15T10:55:47.198Z,43.18
2018-06-15T10:58:16.558Z,44.42
2018-06-15T11:00:45.629Z,45.11
2018-06-15T11:03:14.909Z,43.91
2018-06-15T11:05:43.969Z,42.23
2018-06-15T11:08:13.073Z,40.92
2018-06-15T11:10:41.835Z,41.28
2018-06-15T11:13:10.911Z,39.79
2018-06-15T11:15:39.983Z,38.71
2018-06-15T11:18:08.792Z,38.87
2018-06-15T11:20:38.139Z,40.98
2018-06-15T11:23:07.211Z,40.82
2018-06-15T11:25:36.208Z,39.04
2018-06-15T11:28:05.050Z,37.51
2018-06-15T11:30:33.944Z,40.66
2018-06-15T11:33:02.673Z,38.73
2018-06-15T11:35:31.780Z,37.39
2018-06-15T11:38:01.388Z,37.09
2018-06-15T11:40:31.100Z,37.35
2018-06-15T11:42:59.894Z,35.82
2018-06-15T11:45:29.290Z,32.49
2018-06-15T11:47:58.671Z,32.55
2018-06-15T11:50:28.025Z,32.07
2018-06-15T11:53:01.890Z,30.97
2018-06-15T11:55:30.880Z,32.27
2018-06-15T11:57:59.976Z,31.97
2018-06-15T12:00:29.361Z,32.25
2018-06-15T12:02:58.403Z,31.97
2018-06-15T12:05:27.766Z,33.35
2018-06-15T12:07:57.235Z,33.26
2018-06-15T12:10:26.334Z,33.70
2018-06-15T12:12:55.809Z,32.89
2018-06-15T12:15:24.564Z,30.21
2018-06-15T12:17:53.324Z,30.52
2018-06-15T12:20:22.081Z,30.73
2018-06-15T12:22:51.375Z,31.25
2018-06-15T12:25:20.566Z,31.53
2018-06-15T12:27:49.619Z,32.23
2018-06-15T12:30:18.431Z,30.35
2018-06-15T12:32:47.457Z,30.61
2018-06-15T12:35:16.516Z,31.30
2018-06-15T12:37:45.926Z,32.06
2018-06-15T12:40:14.668Z,32.28
2018-06-15T12:42:43.559Z,32.18
2018-06-15T12:45:12.801Z,33.01
2018-06-15T12:47:41.529Z,32.43
2018-06-15T12:50:10.402Z,31.89
2018-06-15T12:52:39.188Z,32.58
2018-06-15T12:55:07.918Z,32.26
2018-06-15T12:57:37.290Z,32.96
2018-06-15T13:00:06.131Z,31.18
2018-06-15T13:02:35.986Z,31.88
2018-06-15T13:05:05.050Z,31.49
2018-06-15T13:07:34.064Z,33.27
2018-06-15T13:10:03.159Z,33.39
2018-06-15T13:12:31.913Z,31.63
2018-06-15T13:15:01.777Z,32.97
2018-06-15T13:17:31.601Z,32.55
2018-06-15T13:20:00.365Z,30.57
2018-06-15T13:22:29.787Z,31.93
2018-06-15T13:24:58.794Z,32.32
2018-06-15T13:27:27.964Z,33.32
2018-06-15T13:29:57.193Z,33.78
2018-06-15T13:32:26.399Z,33.29
2018-06-15T13:34:55.484Z,33.59
2018-06-15T13:37:24.345Z,33.99
2018-06-15T13:39:53.824Z,33.24
2018-06-15T13:42:22.991Z,34.36
2018-06-15T13:44:52.185Z,35.41
2018-06-15T13:47:21.283Z,36.17
2018-06-15T13:49:50.749Z,37.16
2018-06-15T13:52:20.000Z,36.80
2018-06-15T13:54:49.139Z,37.98
2018-06-15T13:57:17.976Z,38.06
2018-06-15T13:59:47.407Z,38.20
2018-06-15T14:02:16.230Z,38.58
2018-06-15T14:04:45.455Z,38.67
2018-06-15T14:07:14.793Z,38.41
2018-06-15T14:09:44.392Z,38.23
2018-06-15T14:12:13.837Z,38.40
2018-06-15T14:14:42.951Z,38.98
2018-06-15T14:17:11.811Z,38.60
2018-06-15T14:19:40.617Z,38.61
2018-06-15T14:22:09.741Z,38.45
2018-06-15T14:24:38.490Z,38.95
2018-06-15T14:27:07.768Z,38.16
2018-06-15T14:29:37.523Z,37.40
2018-06-15T14:32:06.848Z,37.93
2018-06-15T14:34:36.075Z,36.97
2018-06-15T14:37:05.234Z,37.59
2018-06-15T14:39:34.028Z,37.71
2018-06-15T14:42:03.832Z,39.31
2018-06-15T14:44:32.661Z,40.63
2018-06-15T14:47:02.465Z,39.51
2018-06-15T14:49:31.273Z,38.87
2018-06-15T14:52:00.365Z,38.75
2018-06-15T14:54:30.164Z,37.57
2018-06-15T14:56:59.204Z,37.54
2018-06-15T14:59:28.362Z,38.79
2018-06-15T15:01:57.738Z,40.25
2018-06-15T15:04:26.766Z,39.14
2018-06-15T15:06:55.864Z,39.44
2018-06-15T15:09:24.916Z,40.15
2018-06-15T15:11:53.773Z,39.16
2018-06-15T15:14:23.001Z,39.39
2018-06-15T15:16:52.141Z,38.08
2018-06-15T15:19:21.577Z,37.70
2018-06-15T15:21:50.542Z,37.25
2018-06-15T15:24:19.743Z,37.98
2018-06-15T15:26:49.134Z,37.33
2018-06-15T15:29:18.055Z,36.85
2018-06-15T15:31:47.493Z,37.33
2018-06-15T15:34:23.059Z,38.61
2018-06-15T15:36:52.522Z,37.91
2018-06-15T15:39:21.362Z,37.91
2018-06-15T15:41:51.091Z,37.45
2018-06-15T15:44:20.531Z,37.91
2018-06-15T15:46:50.293Z,36.82
2018-06-15T15:49:19.472Z,36.78
2018-06-15T15:51:48.807Z,37.79
2018-06-15T15:54:18.365Z,36.47
2018-06-15T15:56:47.171Z,37.02
2018-06-15T15:59:16.540Z,37.38
2018-06-15T16:01:45.991Z,37.65
2018-06-15T16:04:15.693Z,37.17
2018-06-15T16:06:44.568Z,38.02
2018-06-15T16:09:13.884Z,37.67
2018-06-15T16:11:43.055Z,37.36
2018-06-15T16:14:12.188Z,37.35
2018-06-15T16:16:41.358Z,37.47
2018-06-15T16:19:10.480Z,38.17
2018-06-15T16:21:39.615Z,37.26
2018-06-15T16:24:08.445Z,37.16
2018-06-15T16:26:37.311Z,37.04
2018-06-15T16:29:06.529Z,38.13
2018-06-15T16:31:35.655Z,38.48
2018-06-15T16:34:04.911Z,38.13
2018-06-15T16:36:34.089Z,39.34
2018-06-15T16:39:03.019Z,39.85
2018-06-15T16:41:31.858Z,40.07
2018-06-15T16:44:01.296Z,39.98
2018-06-15T16:46:30.355Z,39.38
2018-06-15T16:48:59.850Z,40.12
2018-06-15T16:51:28.673Z,39.50
2018-06-15T16:53:57.924Z,40.01
2018-06-15T16:56:27.415Z,40.27
2018-06-15T16:58:56.474Z,39.62
2018-06-15T17:01:26.059Z,38.60
2018-06-15T17:03:55.819Z,38.90
2018-06-15T17:06:25.352Z,39.38
2018-06-15T17:08:54.774Z,38.28
2018-06-15T17:11:23.888Z,39.47
2018-06-15T17:13:53.483Z,38.88
2018-06-15T17:16:23.031Z,39.42
2018-06-15T17:18:52.168Z,38.92
2018-06-15T17:21:21.602Z,39.02
2018-06-15T17:23:50.455Z,39.82
2018-06-15T17:26:19.291Z,40.61
2018-06-15T17:28:48.409Z,40.26
2018-06-15T17:31:17.361Z,40.38
2018-06-15T17:33:46.567Z,40.85
2018-06-15T17:36:15.682Z,41.09
2018-06-15T17:38:44.537Z,42.28
2018-06-15T17:41:14.345Z,42.25
2018-06-15T17:43:43.221Z,42.37
2018-06-15T17:46:12.043Z,42.24
2018-06-15T17:48:41.483Z,42.88
2018-06-15T17:51:10.983Z,42.75
2018-06-15T17:53:39.923Z,43.08
2018-06-15T17:56:09.098Z,42.85
2018-06-15T17:58:38.283Z,43.58
2018-06-15T18:01:07.543Z,42.90
2018-06-15T18:03:36.580Z,43.93
2018-06-15T18:06:05.497Z,43.02
2018-06-15T18:08:34.695Z,43.09
2018-06-15T18:11:03.771Z,44.28
2018-06-15T18:13:32.949Z,44.36
2018-06-15T18:16:01.790Z,44.22
2018-06-15T18:18:31.350Z,44.58
2018-06-15T18:21:00.195Z,44.51
2018-06-15T18:23:29.161Z,44.79
2018-06-15T18:25:57.967Z,45.08
2018-06-15T18:28:26.828Z,45.27
2018-06-15T18:30:56.041Z,46.56
2018-06-15T18:33:25.243Z,46.48
2018-06-15T18:35:54.445Z,46.96
2018-06-15T18:38:23.798Z,47.90
2018-06-15T18:40:53.275Z,47.44
2018-06-15T18:43:22.365Z,47.70
2018-06-15T18:45:52.040Z,47.27
2018-06-15T18:48:20.928Z,47.99
2018-06-15T18:50:50.034Z,48.21
2018-06-15T18:53:18.937Z,47.67
2018-06-15T18:55:48.181Z,48.08
2018-06-15T18:58:18.693Z,48.83
2018-06-15T19:00:47.712Z,48.69
2018-06-15T19:03:16.828Z,48.65
2018-06-15T19:05:46.683Z,49.29
2018-06-15T19:08:15.571Z,48.76
2018-06-15T19:10:44.698Z,49.01
2018-06-15T19:13:13.880Z,49.68
2018-06-15T19:15:43.052Z,49.82
2018-06-15T19:18:12.146Z,49.62
2018-06-15T19:20:41.119Z,49.81
2018-06-15T19:23:10.496Z,50.20
2018-06-15T19:25:39.763Z,50.21
2018-06-15T19:28:08.649Z,50.84
2018-06-15T19:30:37.905Z,50.59
2018-06-15T19:33:07.021Z,50.70
2018-06-15T19:35:35.991Z,51.43
2018-06-15T19:38:05.191Z,51.59
2018-06-15T19:40:34.058Z,51.73
2018-06-15T19:43:02.894Z,51.71
2018-06-15T19:45:32.526Z,50.92
2018-06-15T19:48:01.435Z,51.76
2018-06-15T19:50:30.302Z,51.87
2018-06-15T19:52:59.273Z,51.63
2018-06-15T19:55:28.346Z,51.58
2018-06-15T19:57:57.224Z,52.64
2018-06-15T20:00:26.501Z,53.16
2018-06-15T20:02:55.676Z,54.29
2018-06-15T20:05:24.551Z,54.55
2018-06-15T20:07:54.049Z,55.34
2018-06-15T20:10:23.387Z,55.92
2018-06-15T20:12:52.859Z,55.96
2018-06-15T20:15:22.412Z,55.44
2018-06-15T20:17:51.638Z,55.64
2018-06-15T20:20:20.630Z,55.99
2018-06-15T20:22:50.079Z,56.44
2018-06-15T20:25:19.041Z,56.05
2018-06-15T20:27:48.180Z,56.90
2018-06-15T20:30:17.651Z,56.76
2018-06-15T20:32:46.764Z,57.17
2018-06-15T20:35:15.914Z,57.95
2018-06-15T20:37:45.044Z,57.82
2018-06-15T20:40:14.006Z,58.15
2018-06-15T20:42:43.501Z,58.47
2018-06-15T20:45:12.625Z,58.29
2018-06-15T20:47:41.702Z,58.71
2018-06-15T20:50:10.967Z,58.49
2018-06-15T20:52:40.650Z,59.29
2018-06-15T20:55:09.811Z,59.45
2018-06-15T20:57:38.984Z,59.11
2018-06-15T21:00:08.777Z,59.18
2018-06-15T21:02:38.612Z,59.72
2018-06-15T21:05:07.560Z,60.25
2018-06-15T21:07:36.401Z,59.96
2018-06-15T21:10:05.696Z,60.46
2018-06-15T21:12:34.633Z,59.93
2018-06-15T21:15:03.851Z,60.32
2018-06-15T21:17:33.054Z,61.22
2018-06-15T21:20:02.277Z,61.32
2018-06-15T21:22:31.060Z,61.43
2018-06-15T21:25:00.481Z,61.30
2018-06-15T21:27:29.959Z,61.57
2018-06-15T21:29:59.428Z,61.58
2018-06-15T21:32:28.295Z,61.57
2018-06-15T21:34:58.049Z,62.19
2018-06-15T21:37:27.056Z,62.21
2018-06-15T21:39:56.011Z,62.78
2018-06-15T21:42:25.245Z,62.76
2018-06-15T21:44:54.165Z,63.00
2018-06-15T21:47:23.368Z,63.23
2018-06-15T21:49:52.241Z,63.55
2018-06-15T21:52:21.286Z,63.05
2018-06-15T21:54:50.568Z,63.30
2018-06-15T21:57:19.667Z,63.88
2018-06-15T21:59:48.788Z,63.94
2018-06-15T22:02:17.757Z,63.62
2018-06-15T22:04:46.822Z,64.19
2018-06-15T22:07:16.467Z,64.31
2018-06-15T22:09:45.519Z,63.96
2018-06-15T22:12:15.176Z,64.72
2018-06-15T22:14:44.355Z,64.50
2018-06-15T22:17:14.547Z,64.16
2018-06-15T22:19:44.716Z,64.90
2018-06-15T22:22:16.064Z,64.96
2018-06-15T22:24:46.257Z,64.89
2018-06-15T22:27:16.415Z,64.49
2018-06-15T22:29:46.371Z,64.96
2018-06-15T22:32:16.071Z,65.32
2018-06-15T22:34:45.244Z,64.95
2018-06-15T22:37:14.462Z,65.53
2018-06-15T22:39:43.708Z,65.29
2018-06-15T22:42:12.602Z,65.69
2018-06-15T22:44:41.719Z,65.92
2018-06-15T22:47:10.797Z,66.18
2018-06-15T22:49:39.968Z,65.87
2018-06-15T22:52:09.203Z,66.37
2018-06-15T22:54:38.595Z,66.00
2018-06-15T22:57:07.758Z,66.34
2018-06-15T22:59:36.563Z,66.14
2018-06-15T23:02:05.450Z,66.05
2018-06-15T23:04:34.730Z,66.49
2018-06-15T23:07:03.535Z,66.60
2018-06-15T23:09:33.698Z,66.41
2018-06-15T23:12:02.827Z,66.66
2018-06-15T23:14:31.960Z,66.90
2018-06-15T23:17:01.136Z,67.16
2018-06-15T23:19:30.207Z,67.17
2018-06-15T23:21:59.385Z,67.27
2018-06-15T23:24:28.324Z,68.19
2018-06-15T23:26:57.151Z,67.69
2018-06-15T23:29:26.266Z,68.13
2018-06-15T23:31:55.505Z,67.94
2018-06-15T23:34:25.265Z,68.13
2018-06-15T23:36:54.375Z,67.91
2018-06-15T23:39:23.541Z,67.83
2018-06-15T23:41:52.666Z,68.20
2018-06-15T23:44:21.462Z,68.63
2018-06-15T23:46:50.526Z,68.84
2018-06-15T23:49:19.762Z,68.83
2018-06-15T23:51:49.419Z,68.39
2018-06-15T23:54:18.445Z,68.19
2018-06-15T23:56:47.301Z,68.78
2018-06-15T23:59:16.425Z,68.19
